Time;durP1;ratioP1;P1;durP2;ratioP2;P2;SDS_P1;SDS_P2;PMS_P1;PMS_P2;Temp;Humidity;BMP_temperature;BMP_pressure;BME280_temperature;BME280_humidity;BME280_pressure;Samples;Min_cycle;Max_cycle;Signal;HPM_P1;HPM_P2
2023/09/06 00:00:17;;;;;;;7.20;2.33;;;;;;;16.62;100.00;98007.69;18290688;32;20065;-56
2023/09/06 00:10:22;;;;;;;2.60;1.87;;;;;;;16.51;100.00;98007.88;18289856;32;20057;-56
2023/09/06 00:20:25;;;;;;;3.33;1.90;;;;;;;16.39;100.00;98004.78;18289734;32;20067;-56
2023/09/06 00:30:27;;;;;;;4.07;2.47;;;;;;;16.24;100.00;98012.16;18302989;32;20375;-57
2023/09/06 00:40:35;;;;;;;4.60;2.40;;;;;;;16.13;100.00;97998.97;18301780;32;20102;-57
2023/09/06 00:50:41;;;;;;;2.45;1.90;;;;;;;16.02;100.00;98003.78;18301982;32;20120;-56
2023/09/06 01:00:46;;;;;;;4.93;2.33;;;;;;;15.91;100.00;98000.44;18301224;32;20054;-56
2023/09/06 01:10:50;;;;;;;7.15;2.50;;;;;;;15.76;100.00;97998.72;18301376;32;20102;-56
2023/09/06 01:21:02;;;;;;;5.30;2.33;;;;;;;15.66;100.00;97998.84;18287125;32;20064;-56
2023/09/06 01:31:04;;;;;;;3.70;2.40;;;;;;;15.59;100.00;98000.06;18299850;32;20467;-55
2023/09/06 01:41:11;;;;;;;5.18;2.00;;;;;;;15.48;100.00;97992.31;18299428;32;20390;-56
2023/09/06 01:51:15;;;;;;;2.75;2.17;;;;;;;15.36;100.00;97984.56;18298967;32;20466;-55
2023/09/06 02:01:19;;;;;;;3.37;2.33;;;;;;;15.25;100.00;97990.16;18298524;32;20127;-56
2023/09/06 02:11:22;;;;;;;5.50;2.30;;;;;;;15.13;100.00;97997.13;18297097;32;20091;-55
2023/09/06 02:21:25;;;;;;;6.40;2.72;;;;;;;15.01;100.00;97989.37;18284032;32;20354;-55
2023/09/06 02:31:28;;;;;;;5.53;2.63;;;;;;;14.93;100.00;98003.63;18297171;32;20504;-55
2023/09/06 02:41:31;;;;;;;5.45;2.97;;;;;;;14.86;100.00;98006.72;18296084;32;20064;-56
2023/09/06 02:51:34;;;;;;;3.62;2.35;;;;;;;14.74;100.00;98004.37;18295880;32;20062;-56
2023/09/06 03:01:44;;;;;;;6.80;2.45;;;;;;;14.65;100.00;98004.22;18295659;32;20343;-56
2023/09/06 03:11:48;;;;;;;3.87;2.58;;;;;;;14.51;100.00;98014.94;18295244;32;20362;-56
2023/09/06 03:21:54;;;;;;;4.57;2.50;;;;;;;14.43;100.00;98007.41;18295005;32;20353;-56
2023/09/06 03:31:56;;;;;;;7.12;2.78;;;;;;;14.29;100.00;98006.44;18294329;32;20058;-55
2023/09/06 03:42:00;;;;;;;8.45;2.70;;;;;;;14.20;100.00;98003.53;18293491;32;20041;-56
2023/09/06 03:52:04;;;;;;;5.57;2.53;;;;;;;14.10;100.00;98004.44;18293948;32;20080;-56
2023/09/06 04:02:13;;;;;;;11.15;3.05;;;;;;;14.03;100.00;98009.34;18293242;32;20382;-56
2023/09/06 04:12:15;;;;;;;6.78;2.45;;;;;;;13.94;100.00;98016.53;18278866;32;20065;-55
2023/09/06 04:22:19;;;;;;;5.50;2.35;;;;;;;13.83;100.00;98022.03;18292261;32;20069;-56
2023/09/06 04:32:23;;;;;;;8.52;2.62;;;;;;;13.74;100.00;98034.56;18298450;32;20058;-56
2023/09/06 04:42:27;;;;;;;4.65;2.45;;;;;;;13.67;100.00;98040.31;18302125;32;20055;-55
2023/09/06 04:52:29;;;;;;;5.35;2.58;;;;;;;13.65;100.00;98052.56;18288112;32;20100;-55
2023/09/06 05:02:32;;;;;;;4.78;2.30;;;;;;;13.63;100.00;98057.47;18287776;32;20058;-55
2023/09/06 05:12:36;;;;;;;6.22;2.78;;;;;;;13.64;100.00;98056.41;18300802;32;20066;-56
2023/09/06 05:22:39;;;;;;;4.57;2.80;;;;;;;13.62;100.00;98059.41;18286813;32;20145;-56
2023/09/06 05:32:43;;;;;;;3.47;2.80;;;;;;;13.65;100.00;98058.00;18285701;32;20058;-56
2023/09/06 05:42:47;;;;;;;4.45;2.95;;;;;;;13.64;100.00;98065.34;18298763;32;20072;-56
2023/09/06 05:52:50;;;;;;;5.53;2.95;;;;;;;13.73;100.00;98060.13;18285228;32;20497;-56
2023/09/06 06:02:57;;;;;;;4.32;2.67;;;;;;;13.96;100.00;98074.13;18298369;32;20053;-55
2023/09/06 06:13:04;;;;;;;5.97;3.05;;;;;;;14.21;100.00;98082.09;18297918;32;20081;-56
2023/09/06 06:23:07;;;;;;;3.40;2.70;;;;;;;14.54;100.00;98078.88;18297681;32;20062;-56
2023/09/06 06:33:11;;;;;;;3.13;2.60;;;;;;;14.84;100.00;98083.22;18296845;32;20061;-56
2023/09/06 06:43:16;;;;;;;2.87;2.30;;;;;;;15.17;100.00;98086.16;18296969;32;20068;-56
2023/09/06 06:53:19;;;;;;;6.12;2.85;;;;;;;15.52;100.00;98086.81;18295621;32;20101;-56
2023/09/06 07:03:23;;;;;;;2.92;2.60;;;;;;;15.92;100.00;98102.94;18295333;32;20091;-56
2023/09/06 07:13:27;;;;;;;3.92;2.75;;;;;;;16.31;100.00;98103.72;18295110;32;20373;-56
2023/09/06 07:23:31;;;;;;;4.18;2.95;;;;;;;16.71;100.00;98098.72;18294665;32;20054;-56
2023/09/06 07:33:35;;;;;;;5.83;2.77;;;;;;;17.04;100.00;98107.69;18294249;32;20046;-56
2023/09/06 07:43:38;;;;;;;5.32;2.70;;;;;;;17.39;100.00;98101.84;18293556;32;20054;-56
2023/09/06 07:53:41;;;;;;;4.15;3.35;;;;;;;17.81;100.00;98108.09;18293411;32;20063;-56
2023/09/06 08:03:45;;;;;;;4.30;3.47;;;;;;;18.23;100.00;98110.75;18296574;32;20042;-56
2023/09/06 08:13:50;;;;;;;4.05;2.97;;;;;;;18.57;100.00;98103.91;18303947;32;20069;-57
2023/09/06 08:23:53;;;;;;;5.32;3.35;;;;;;;19.04;100.00;98109.84;18303334;32;20069;-57
2023/09/06 08:33:57;;;;;;;3.70;2.75;;;;;;;19.47;100.00;98100.16;18302960;32;20050;-57
2023/09/06 08:44:06;;;;;;;4.83;3.63;;;;;;;19.92;100.00;98099.16;18302171;32;20488;-57
2023/09/06 08:54:10;;;;;;;3.12;2.70;;;;;;;20.33;100.00;98099.84;18287776;32;20061;-57
2023/09/06 09:04:12;;;;;;;4.15;2.78;;;;;;;20.64;100.00;98097.69;18287681;32;20098;-56
2023/09/06 09:14:25;;;;;;;4.30;3.20;;;;;;;20.97;100.00;98102.66;18300602;32;20055;-56
2023/09/06 09:24:29;;;;;;;4.90;2.77;;;;;;;21.33;100.00;98098.62;18300764;32;20058;-56
2023/09/06 09:34:32;;;;;;;4.90;3.17;;;;;;;21.66;100.00;98100.75;18299778;32;20065;-57
2023/09/06 09:44:35;;;;;;;;;;;;;;;21.96;100.00;98083.41;18299433;32;20061;-57
2023/09/06 09:54:42;;;;;;;5.28;3.15;;;;;;;22.28;100.00;98084.62;18299126;32;20226;-57
2023/09/06 10:04:47;;;;;;;3.42;2.97;;;;;;;22.60;100.00;98084.19;18298307;32;20046;-57
2023/09/06 10:14:53;;;;;;;4.30;2.92;;;;;;;22.97;100.00;98085.09;18298001;32;20097;-57
2023/09/06 10:25:06;;;;;;;3.97;2.83;;;;;;;23.25;100.00;98076.16;18296912;32;20054;-56
2023/09/06 10:35:21;;;;;;;3.60;2.60;;;;;;;23.49;100.00;98080.09;18297543;32;20089;-56
2023/09/06 10:45:24;;;;;;;4.22;3.00;;;;;;;23.74;100.00;98069.03;18296056;32;20050;-57
2023/09/06 10:55:42;;;;;;;4.43;3.05;;;;;;;24.11;100.00;98066.22;18282486;32;20096;-57
2023/09/06 11:05:52;;;;;;;6.20;3.55;;;;;;;24.48;100.00;98049.47;18295589;32;20106;-57
2023/09/06 11:15:55;;;;;;;4.93;3.45;;;;;;;24.79;100.00;98048.75;18295335;32;20071;-57
2023/09/06 11:25:58;;;;;;;3.08;2.42;;;;;;;25.09;98.14;98045.56;18294620;32;20176;-57
2023/09/06 11:36:03;;;;;;;4.22;3.28;;;;;;;25.50;100.00;98032.31;18294223;32;20055;-57
2023/09/06 11:46:08;;;;;;;4.00;3.55;;;;;;;25.85;87.80;98016.84;18304913;32;20433;-57
2023/09/06 11:56:13;;;;;;;5.32;3.40;;;;;;;26.17;93.10;98013.97;18279013;32;20092;-57
2023/09/06 12:06:18;;;;;;;3.95;3.58;;;;;;;26.46;83.92;98011.75;18304375;32;20063;-57
2023/09/06 12:16:23;;;;;;;4.20;3.30;;;;;;;26.85;90.17;98006.94;18303559;32;20371;-57
2023/09/06 12:26:26;;;;;;;5.05;3.87;;;;;;;27.30;89.08;97998.91;18303379;32;20050;-58
2023/09/06 12:36:31;;;;;;;5.53;3.95;;;;;;;27.73;87.32;97995.97;18288649;32;20054;-57
2023/09/06 12:46:34;;;;;;;4.53;3.72;;;;;;;28.12;83.25;97992.09;18288817;32;20073;-58
2023/09/06 12:56:38;;;;;;;7.22;3.90;;;;;;;28.67;81.69;97983.16;18286709;32;20088;-57
2023/09/06 13:06:43;;;;;;;5.07;3.65;;;;;;;28.99;80.27;97986.22;18301548;32;20101;-57
2023/09/06 13:16:47;;;;;;;4.72;3.80;;;;;;;29.59;80.51;97987.06;18300864;32;20113;-57
2023/09/06 13:26:50;;;;;;;4.30;3.90;;;;;;;29.86;71.80;97967.28;18300507;32;20100;-57
2023/09/06 13:36:53;;;;;;;4.85;3.85;;;;;;;30.31;72.10;97961.47;18299533;32;20109;-57
2023/09/06 13:46:58;;;;;;;6.00;3.70;;;;;;;30.60;69.20;97953.97;18299423;32;20543;-57
2023/09/06 13:57:00;;;;;;;4.22;3.58;;;;;;;30.95;62.74;97946.78;18298763;32;20438;-57
2023/09/06 14:07:04;;;;;;;6.57;3.67;;;;;;;30.99;58.17;97942.00;18297946;32;20061;-57
2023/09/06 14:17:08;;;;;;;4.30;3.70;;;;;;;31.03;53.54;97937.25;18283957;32;20121;-57
2023/09/06 14:27:11;;;;;;;3.25;2.85;;;;;;;30.20;55.91;97933.56;18297226;32;20061;-57
2023/09/06 14:37:14;;;;;;;3.50;2.85;;;;;;;29.70;56.33;97925.81;18296562;32;20065;-57
2023/09/06 14:47:18;;;;;;;4.47;2.80;;;;;;;29.52;61.84;97909.00;18270083;32;20058;-57
2023/09/06 14:57:21;;;;;;;3.55;3.03;;;;;;;28.97;59.52;97905.09;18295996;32;20370;-57
2023/09/06 15:07:24;;;;;;;5.07;2.72;;;;;;;28.58;56.93;97897.22;18295232;32;20503;-57
2023/09/06 15:17:27;;;;;;;3.42;2.55;;;;;;;28.22;62.52;97886.56;18294737;32;20125;-57
2023/09/06 15:27:30;;;;;;;3.40;2.92;;;;;;;27.94;67.55;97883.47;18294534;32;20077;-57
2023/09/06 15:37:33;;;;;;;4.55;2.87;;;;;;;27.76;68.67;97880.50;18294489;32;20386;-57
2023/09/06 15:47:37;;;;;;;2.67;2.47;;;;;;;27.58;64.54;97883.09;18279929;32;20061;-57
2023/09/06 15:57:44;;;;;;;3.85;3.17;;;;;;;27.30;64.61;97887.88;18293625;32;20054;-57
2023/09/06 16:07:49;;;;;;;3.53;2.78;;;;;;;27.04;74.24;97881.16;18293169;32;20089;-56
2023/09/06 16:17:52;;;;;;;3.60;2.40;;;;;;;26.75;78.92;97884.69;18292750;32;20442;-57
2023/09/06 16:27:56;;;;;;;3.28;2.97;;;;;;;26.43;92.40;97877.41;18298475;32;20161;-57
2023/09/06 16:37:58;;;;;;;4.05;2.80;;;;;;;26.03;100.00;97876.72;18302636;32;20053;-57
2023/09/06 16:48:01;;;;;;;2.97;2.55;;;;;;;25.65;100.00;97875.59;18301997;32;20065;-57
2023/09/06 16:58:07;;;;;;;3.45;2.37;;;;;;;25.32;100.00;97876.06;18302233;32;20080;-57
2023/09/06 17:08:10;;;;;;;4.25;2.78;;;;;;;24.94;100.00;97872.06;18287724;32;20066;-57
2023/09/06 17:18:15;;;;;;;2.83;2.35;;;;;;;24.56;100.00;97888.16;18300685;32;20058;-56
2023/09/06 17:28:18;;;;;;;5.20;2.67;;;;;;;24.16;100.00;97897.41;18300409;32;20066;-56
2023/09/06 17:38:22;;;;;;;3.80;2.80;;;;;;;23.73;100.00;97885.19;18285940;32;20117;-57
2023/09/06 17:48:26;;;;;;;3.45;2.50;;;;;;;23.32;100.00;97890.75;18299139;32;20080;-57
2023/09/06 17:58:29;;;;;;;4.37;2.67;;;;;;;22.95;100.00;97890.78;18285768;32;20094;-56
2023/09/06 18:08:34;;;;;;;6.00;2.47;;;;;;;22.56;100.00;97896.66;18284754;32;20054;-56
2023/09/06 18:18:37;;;;;;;4.60;2.67;;;;;;;22.19;100.00;97907.59;18297936;32;20054;-57
2023/09/06 18:28:40;;;;;;;3.75;2.50;;;;;;;21.86;100.00;97913.94;18297372;32;20094;-57
2023/09/06 18:38:43;;;;;;;4.82;2.90;;;;;;;21.56;100.00;97916.78;18283213;32;20053;-56
2023/09/06 18:48:45;;;;;;;9.00;3.67;;;;;;;21.27;100.00;97914.91;18295709;32;20434;-56
2023/09/06 18:58:52;;;;;;;3.22;2.42;;;;;;;20.99;100.00;97932.72;18295933;32;20085;-56
2023/09/06 19:08:56;;;;;;;;;;;;;;;20.74;100.00;97933.66;18295466;32;20062;-56
2023/09/06 19:18:59;;;;;;;6.00;4.53;;;;;;;20.47;100.00;97939.22;18295427;32;19976;-56
2023/09/06 19:29:03;;;;;;;9.07;4.15;;;;;;;20.23;100.00;97947.22;18294987;32;20059;-56
2023/09/06 19:39:11;;;;;;;5.80;2.80;;;;;;;20.02;100.00;97947.09;18279999;32;20094;-56
2023/09/06 19:49:14;;;;;;;4.18;2.53;;;;;;;19.80;100.00;97955.19;18293961;32;20058;-56
2023/09/06 19:59:17;;;;;;;3.57;2.77;;;;;;;19.59;100.00;97948.72;18296459;32;20425;-56
2023/09/06 20:09:20;;;;;;;3.50;2.90;;;;;;;19.41;100.00;97950.63;18304224;32;20061;-56
2023/09/06 20:19:24;;;;;;;7.30;2.95;;;;;;;19.25;100.00;97936.56;18289618;32;20065;-56
2023/09/06 20:29:28;;;;;;;4.32;2.55;;;;;;;19.08;100.00;97946.38;18303580;32;20088;-56
2023/09/06 20:39:31;;;;;;;;;;;;;;;18.90;100.00;97934.59;18302742;32;20319;-56
2023/09/06 20:49:34;;;;;;;6.93;2.42;;;;;;;18.74;100.00;97941.59;18302241;32;19963;-56
2023/09/06 20:59:36;;;;;;;3.80;2.80;;;;;;;18.59;100.00;97940.88;18301995;32;20358;-55
2023/09/06 21:09:39;;;;;;;10.33;3.27;;;;;;;18.46;100.00;97953.56;18301067;32;20054;-56
2023/09/06 21:19:42;;;;;;;4.43;2.23;;;;;;;18.28;100.00;97960.06;18300819;32;20108;-56
2023/09/06 21:29:45;;;;;;;7.57;3.10;;;;;;;18.13;100.00;97955.81;18300299;32;20354;-56
2023/09/06 21:39:48;;;;;;;4.60;2.73;;;;;;;18.03;100.00;97950.59;18299634;32;20078;-56
2023/09/06 21:49:50;;;;;;;8.70;3.05;;;;;;;17.91;100.00;97960.16;18299669;32;20347;-56
2023/09/06 21:59:53;;;;;;;4.37;2.92;;;;;;;17.78;100.00;97953.59;18298968;32;20069;-56
2023/09/06 22:09:55;;;;;;;4.20;2.92;;;;;;;17.70;100.00;97962.53;18298376;32;20055;-56
2023/09/06 22:19:59;;;;;;;11.10;3.23;;;;;;;17.57;100.00;97961.50;18297836;32;20099;-57
2023/09/06 22:30:03;;;;;;;7.93;3.10;;;;;;;17.47;100.00;97977.31;18283601;32;20073;-56
2023/09/06 22:40:06;;;;;;;3.05;2.67;;;;;;;17.39;100.00;97967.91;18282665;32;20094;-56
2023/09/06 22:50:09;;;;;;;;;;;;;;;17.25;100.00;97982.44;18296774;32;20102;-56
2023/09/06 23:00:12;;;;;;;7.05;2.87;;;;;;;17.17;100.00;97988.59;18296286;32;20337;-56
2023/09/06 23:10:16;;;;;;;6.50;2.95;;;;;;;17.07;100.00;97980.63;18282305;32;20058;-56
2023/09/06 23:20:26;;;;;;;;;;;;;;;16.99;100.00;97978.59;18295320;32;20104;-55
2023/09/06 23:30:30;;;;;;;3.30;2.70;;;;;;;16.88;100.00;97984.25;18295087;32;19957;-56
2023/09/06 23:40:37;;;;;;;5.45;2.67;;;;;;;16.79;100.00;97983.34;18293856;32;20477;-56
2023/09/06 23:50:39;;;;;;;4.82;2.40;;;;;;;16.70;100.00;97972.28;18280332;32;20366;-56
